Ru Kontio — OIRV — position and weather

sailwx.info

Track history (hours):
 
Tides and Currents Weather Stations Pressure Air Temp Water Temp Dewpoint Dewpoint Depression Visibility Wind Speed Wind Dir Waves Ship Positions

Ru Kontio

Last reported at 2016-May-08 06:04 UTC. Time now 2016-May-31 19:56 UTC.
Position N 59°48' E 024°16'.
Warning: this ship's position is 23 days out of date.

Type: Other ship. MMSI: 230251000.

Date/timePositionNaut miles runAvg speedWind from/ knotsBaromVisibWave heightAir tempDewpointWater temp
2016-May-08 06:04N 59°48' E 024°16'612.1
2016-May-08 05:33N 59°47' E 024°04'1211.9
2016-May-08 04:33N 59°44' E 023°42'1212.2
2016-May-08 03:33N 59°41' E 023°18'1212.0
2016-May-08 02:33N 59°38' E 022°55'1611.9
2016-May-08 01:15N 59°34' E 022°25'812.0
2016-May-08 00:33N 59°33' E 022°09'1211.9
2016-May-07 23:34N 59°32' E 021°46'1111.1
2016-May-07 22:33N 59°37' E 021°27'1111.1
2016-May-07 21:33N 59°48' E 021°20'1111.2
2016-May-07 20:33N 59°55' E 021°37'  
Track history (hours):
 
Tides and Currents Weather Stations Pressure Air Temp Water Temp Dewpoint Dewpoint Depression Visibility Wind Speed Wind Dir Waves Ship Positions

Ru Kontio

Last reported at 2016-May-08 06:04 UTC. Time now 2016-May-31 19:56 UTC.
Position N 59°48' E 024°16'.
Warning: this ship's position is 23 days out of date.

Type: Other ship. MMSI: 230251000.

Date/timePositionNaut miles runAvg speedWind from/ knotsBaromVisibWave heightAir tempDewpointWater temp
2016-May-08 06:04N 59°48' E 024°16'612.1
2016-May-08 05:33N 59°47' E 024°04'1211.9
2016-May-08 04:33N 59°44' E 023°42'1212.2
2016-May-08 03:33N 59°41' E 023°18'1212.0
2016-May-08 02:33N 59°38' E 022°55'1611.9
2016-May-08 01:15N 59°34' E 022°25'812.0
2016-May-08 00:33N 59°33' E 022°09'1211.9
2016-May-07 23:34N 59°32' E 021°46'1111.1
2016-May-07 22:33N 59°37' E 021°27'1111.1
2016-May-07 21:33N 59°48' E 021°20'1111.2
2016-May-07 20:33N 59°55' E 021°37'  

Dump ship's entire track history